Time;durP1;ratioP1;P1;durP2;ratioP2;P2;SDS_P1;SDS_P2;PMS_P1;PMS_P2;Temp;Humidity;BMP_temperature;BMP_pressure;BME280_temperature;BME280_humidity;BME280_pressure;Samples;Min_cycle;Max_cycle;Signal;HPM_P1;HPM_P2
2021/08/03 00:01:23;;;;;;;8.23;5.43;;;;;;;;;;5114792;28;20059;-67
2021/08/03 00:04:00;;;;;;;6.25;4.90;;;;;;;;;;5114845;28;20023;-67
2021/08/03 00:06:27;;;;;;;6.88;5.13;;;;;;;;;;5115042;28;20024;-66
2021/08/03 00:08:57;;;;;;;7.38;4.60;;;;;;;;;;5114853;28;20023;-68
2021/08/03 00:11:25;;;;;;;9.18;5.25;;;;;;;;;;5114857;28;20019;-68
2021/08/03 00:13:51;;;;;;;6.78;5.45;;;;;;;;;;5114609;28;20036;-67
2021/08/03 00:16:18;;;;;;;7.80;4.75;;;;;;;;;;5114927;28;20055;-67
2021/08/03 00:18:44;;;;;;;7.75;5.20;;;;;;;;;;5114660;28;20374;-67
2021/08/03 00:21:11;;;;;;;6.63;4.78;;;;;;;;;;5114930;28;20027;-67
2021/08/03 00:23:40;;;;;;;7.53;4.68;;;;;;;;;;5113054;28;20031;-67
2021/08/03 00:26:06;;;;;;;7.20;4.20;;;;;;;;;;5103320;28;20031;-67
2021/08/03 00:28:33;;;;;;;7.57;4.65;;;;;;;;;;5110440;28;20031;-66
2021/08/03 00:30:59;;;;;;;9.23;5.03;;;;;;;;;;5096039;28;20270;-68
2021/08/03 00:33:25;;;;;;;8.02;5.40;;;;;;;;;;5095453;28;20028;-67
2021/08/03 00:35:51;;;;;;;7.88;5.70;;;;;;;;;;5094192;28;20384;-68
2021/08/03 00:38:18;;;;;;;6.60;4.90;;;;;;;;;;5114306;28;20020;-68
2021/08/03 00:40:50;;;;;;;15.02;7.10;;;;;;;;;;5114137;28;20031;-67
2021/08/03 00:43:16;;;;;;;8.27;5.70;;;;;;;;;;5113941;28;20024;-67
2021/08/03 00:45:42;;;;;;;6.88;4.38;;;;;;;;;;5113995;28;20032;-67
2021/08/03 00:48:09;;;;;;;7.47;4.80;;;;;;;;;;5113999;28;20026;-67
2021/08/03 00:50:35;;;;;;;6.50;4.35;;;;;;;;;;5114048;28;20438;-67
2021/08/03 00:53:02;;;;;;;7.38;4.85;;;;;;;;;;5113849;28;20030;-67
2021/08/03 00:55:28;;;;;;;5.82;4.32;;;;;;;;;;5113824;28;20439;-67
2021/08/03 00:57:55;;;;;;;7.57;4.03;;;;;;;;;;5113754;28;20103;-67
2021/08/03 01:00:21;;;;;;;6.47;4.10;;;;;;;;;;5112867;28;20082;-68
2021/08/03 01:02:48;;;;;;;8.35;4.88;;;;;;;;;;5113824;28;20141;-68
2021/08/03 01:05:14;;;;;;;9.63;6.25;;;;;;;;;;5113646;28;20030;-67
2021/08/03 01:07:43;;;;;;;8.65;5.28;;;;;;;;;;5111063;28;20031;-67
2021/08/03 01:10:10;;;;;;;9.38;5.35;;;;;;;;;;5113736;28;20047;-67
2021/08/03 01:12:36;;;;;;;7.82;4.63;;;;;;;;;;5113596;28;20026;-67
2021/08/03 01:15:11;;;;;;;7.85;5.25;;;;;;;;;;5113611;28;20102;-67
2021/08/03 01:17:47;;;;;;;5.88;4.65;;;;;;;;;;5113488;28;20498;-68
2021/08/03 01:20:21;;;;;;;6.85;4.25;;;;;;;;;;5093194;28;20042;-67
2021/08/03 01:22:50;;;;;;;5.80;4.77;;;;;;;;;;5093093;28;20482;-68
2021/08/03 01:25:19;;;;;;;5.93;4.55;;;;;;;;;;5093221;28;20024;-67
2021/08/03 01:28:04;;;;;;;7.40;4.53;;;;;;;;;;5092881;28;20024;-68
2021/08/03 01:30:31;;;;;;;6.43;4.00;;;;;;;;;;5092878;28;20024;-67
2021/08/03 01:32:58;;;;;;;5.65;4.28;;;;;;;;;;5092865;28;20013;-68
2021/08/03 01:35:24;;;;;;;7.43;4.57;;;;;;;;;;5092841;28;20525;-67
2021/08/03 01:37:51;;;;;;;8.98;4.70;;;;;;;;;;5108069;28;20439;-67
2021/08/03 01:40:18;;;;;;;6.57;4.32;;;;;;;;;;5113061;28;20031;-67
2021/08/03 01:42:44;;;;;;;5.93;4.60;;;;;;;;;;5113060;28;20382;-68
2021/08/03 01:45:12;;;;;;;9.27;4.43;;;;;;;;;;5112726;28;20049;-67
2021/08/03 01:47:38;;;;;;;6.55;4.50;;;;;;;;;;5113050;28;20030;-67
2021/08/03 01:50:05;;;;;;;8.20;4.53;;;;;;;;;;5112863;28;20084;-68
2021/08/03 01:52:32;;;;;;;6.55;4.65;;;;;;;;;;5112959;28;20016;-67
2021/08/03 01:54:59;;;;;;;8.95;4.38;;;;;;;;;;5112945;28;20542;-67
2021/08/03 01:57:25;;;;;;;6.70;4.28;;;;;;;;;;5112947;28;20024;-67
2021/08/03 01:59:55;;;;;;;8.10;4.55;;;;;;;;;;5111539;28;20389;-68
2021/08/03 02:02:21;;;;;;;7.55;4.70;;;;;;;;;;5112575;28;20047;-67
2021/08/03 02:04:48;;;;;;;7.60;4.82;;;;;;;;;;5112676;28;20028;-68
2021/08/03 02:07:19;;;;;;;5.60;4.28;;;;;;;;;;5112839;28;20042;-68
2021/08/03 02:09:46;;;;;;;5.47;4.05;;;;;;;;;;5112558;28;20030;-67
2021/08/03 02:12:12;;;;;;;8.18;4.97;;;;;;;;;;5114893;28;20470;-68
2021/08/03 02:14:44;;;;;;;9.40;5.70;;;;;;;;;;5117158;28;20442;-67
2021/08/03 02:17:13;;;;;;;7.47;4.70;;;;;;;;;;5117078;28;20031;-67
2021/08/03 02:19:40;;;;;;;6.55;4.65;;;;;;;;;;5116888;28;20024;-67
2021/08/03 02:22:06;;;;;;;6.32;4.70;;;;;;;;;;5116820;28;20030;-68
2021/08/03 02:24:32;;;;;;;6.43;4.70;;;;;;;;;;5116701;28;20074;-67
2021/08/03 02:26:58;;;;;;;8.02;4.38;;;;;;;;;;5117183;28;20088;-68
2021/08/03 02:29:24;;;;;;;6.72;4.75;;;;;;;;;;5116748;28;20047;-67
2021/08/03 02:31:58;;;;;;;8.18;4.82;;;;;;;;;;5116811;28;20107;-66
2021/08/03 02:34:28;;;;;;;6.53;4.63;;;;;;;;;;5116597;28;20027;-67
2021/08/03 02:36:56;;;;;;;8.27;4.88;;;;;;;;;;5116622;28;20486;-67
2021/08/03 02:39:24;;;;;;;9.30;5.20;;;;;;;;;;5116418;28;20054;-67
2021/08/03 02:41:50;;;;;;;6.80;5.03;;;;;;;;;;5116544;28;20542;-67
2021/08/03 02:44:18;;;;;;;7.22;5.13;;;;;;;;;;5116457;28;20114;-67
2021/08/03 02:46:45;;;;;;;6.03;4.22;;;;;;;;;;5116344;28;20098;-67
2021/08/03 02:49:14;;;;;;;7.22;5.38;;;;;;;;;;5116329;28;20028;-67
2021/08/03 02:51:41;;;;;;;6.80;4.38;;;;;;;;;;5116301;28;20489;-67
2021/08/03 02:54:13;;;;;;;6.18;4.32;;;;;;;;;;5116271;28;20539;-68
2021/08/03 02:56:39;;;;;;;7.32;4.88;;;;;;;;;;5116191;28;20016;-67
2021/08/03 02:59:07;;;;;;;8.05;5.07;;;;;;;;;;5116089;28;20023;-68
2021/08/03 03:01:35;;;;;;;7.78;4.93;;;;;;;;;;5116076;28;20126;-67
2021/08/03 03:04:07;;;;;;;8.68;5.20;;;;;;;;;;5115787;28;20027;-68
2021/08/03 03:06:34;;;;;;;7.70;4.30;;;;;;;;;;5116202;28;20020;-67
2021/08/03 03:09:01;;;;;;;9.57;4.82;;;;;;;;;;5115837;28;20018;-67
2021/08/03 03:11:29;;;;;;;7.75;4.40;;;;;;;;;;5115962;28;20073;-67
2021/08/03 03:13:59;;;;;;;7.88;5.00;;;;;;;;;;5115895;28;20023;-68
2021/08/03 03:16:26;;;;;;;6.53;4.85;;;;;;;;;;5115914;28;20458;-68
2021/08/03 03:18:52;;;;;;;7.32;4.05;;;;;;;;;;5115512;28;20028;-67
2021/08/03 03:21:19;;;;;;;7.40;4.55;;;;;;;;;;5115849;28;20098;-67
2021/08/03 03:23:48;;;;;;;6.53;4.43;;;;;;;;;;5115169;27;20023;-68
2021/08/03 03:26:14;;;;;;;6.20;4.07;;;;;;;;;;5116023;28;20019;-67
2021/08/03 03:28:41;;;;;;;7.68;4.97;;;;;;;;;;5115768;28;20104;-67
2021/08/03 03:31:08;;;;;;;7.57;4.95;;;;;;;;;;5115621;28;20386;-68
2021/08/03 03:33:36;;;;;;;7.93;4.63;;;;;;;;;;5115051;28;20076;-68
2021/08/03 03:36:03;;;;;;;6.38;4.80;;;;;;;;;;5114324;28;20079;-68
2021/08/03 03:38:30;;;;;;;7.47;4.38;;;;;;;;;;5106589;28;20047;-68
2021/08/03 03:40:57;;;;;;;9.95;4.55;;;;;;;;;;5094907;28;20028;-67
2021/08/03 03:43:23;;;;;;;7.80;5.22;;;;;;;;;;5094992;28;20481;-67
2021/08/03 03:45:53;;;;;;;7.70;4.45;;;;;;;;;;5094847;28;20024;-68
2021/08/03 03:48:21;;;;;;;9.68;5.00;;;;;;;;;;5094686;28;20074;-68
2021/08/03 03:50:49;;;;;;;6.90;4.45;;;;;;;;;;5093733;28;20059;-68
2021/08/03 03:53:22;;;;;;;5.68;4.60;;;;;;;;;;5094677;28;20446;-68
2021/08/03 03:55:53;;;;;;;7.25;4.53;;;;;;;;;;5094761;28;20423;-67
2021/08/03 03:58:20;;;;;;;6.70;4.60;;;;;;;;;;5094746;28;20168;-68
2021/08/03 04:00:48;;;;;;;7.50;5.45;;;;;;;;;;5094923;28;20040;-67
2021/08/03 04:03:16;;;;;;;10.00;5.28;;;;;;;;;;5094626;28;20417;-67
2021/08/03 04:05:42;;;;;;;8.93;5.53;;;;;;;;;;5094623;28;20028;-68
2021/08/03 04:08:09;;;;;;;6.22;4.45;;;;;;;;;;5094503;28;20048;-67
2021/08/03 04:10:35;;;;;;;8.23;4.82;;;;;;;;;;5094381;28;20024;-67
2021/08/03 04:13:01;;;;;;;11.40;4.78;;;;;;;;;;5094534;28;20016;-67
2021/08/03 04:15:28;;;;;;;10.98;4.85;;;;;;;;;;5094181;28;20024;-68
2021/08/03 04:17:54;;;;;;;6.97;4.45;;;;;;;;;;5096577;28;20036;-67
2021/08/03 04:20:21;;;;;;;8.52;5.13;;;;;;;;;;5114923;28;20027;-67
2021/08/03 04:22:47;;;;;;;6.95;4.85;;;;;;;;;;5114734;28;20555;-67
2021/08/03 04:25:13;;;;;;;6.60;4.38;;;;;;;;;;5114767;28;20413;-69
2021/08/03 04:27:39;;;;;;;7.75;4.85;;;;;;;;;;5114438;28;20028;-68
2021/08/03 04:30:07;;;;;;;8.98;5.05;;;;;;;;;;5114328;28;20031;-67
2021/08/03 04:32:33;;;;;;;6.95;5.22;;;;;;;;;;5114425;28;20024;-68
2021/08/03 04:34:59;;;;;;;7.57;4.68;;;;;;;;;;5113420;28;20024;-68
2021/08/03 04:37:25;;;;;;;7.30;4.88;;;;;;;;;;5114228;28;20030;-67
2021/08/03 04:39:52;;;;;;;6.40;4.75;;;;;;;;;;5114143;28;20027;-67
2021/08/03 04:42:18;;;;;;;7.65;5.20;;;;;;;;;;5114110;28;20035;-67
2021/08/03 04:44:44;;;;;;;8.48;5.20;;;;;;;;;;5114031;28;20020;-67
2021/08/03 04:47:10;;;;;;;6.72;4.53;;;;;;;;;;5114003;28;20424;-68
2021/08/03 04:49:36;;;;;;;7.18;4.85;;;;;;;;;;5114024;28;20027;-67
2021/08/03 04:52:04;;;;;;;8.10;4.88;;;;;;;;;;5113954;28;20023;-67
2021/08/03 04:54:31;;;;;;;9.18;5.53;;;;;;;;;;5113991;28;20070;-67
2021/08/03 04:56:57;;;;;;;7.95;5.60;;;;;;;;;;5113903;28;20020;-67
2021/08/03 04:59:23;;;;;;;7.55;4.57;;;;;;;;;;5113680;28;20042;-67
2021/08/03 05:01:49;;;;;;;8.23;5.03;;;;;;;;;;5113627;28;20040;-67
2021/08/03 05:04:15;;;;;;;9.55;5.10;;;;;;;;;;5113725;28;20036;-67
2021/08/03 05:06:41;;;;;;;7.60;5.03;;;;;;;;;;5113734;28;20024;-68
2021/08/03 05:09:07;;;;;;;9.32;5.65;;;;;;;;;;5113532;28;20031;-67
2021/08/03 05:11:33;;;;;;;8.23;5.35;;;;;;;;;;5113553;28;20020;-68
2021/08/03 05:13:59;;;;;;;6.78;4.80;;;;;;;;;;5113376;28;20046;-67
2021/08/03 05:16:28;;;;;;;9.70;5.15;;;;;;;;;;5113769;28;20381;-67
2021/08/03 05:18:54;;;;;;;8.00;5.53;;;;;;;;;;5113331;28;20024;-67
2021/08/03 05:21:21;;;;;;;9.20;5.40;;;;;;;;;;5113562;28;20027;-67
2021/08/03 05:23:47;;;;;;;9.30;5.95;;;;;;;;;;5113273;28;20028;-68
2021/08/03 05:26:13;;;;;;;9.77;5.22;;;;;;;;;;5113456;28;20024;-68
2021/08/03 05:28:39;;;;;;;6.50;4.75;;;;;;;;;;5113265;28;20020;-67
2021/08/03 05:31:05;;;;;;;10.00;5.70;;;;;;;;;;5113307;28;20030;-66
2021/08/03 05:33:31;;;;;;;9.65;5.55;;;;;;;;;;5113272;28;20560;-67
2021/08/03 05:35:57;;;;;;;6.88;4.93;;;;;;;;;;5113207;28;20605;-68
2021/08/03 05:38:23;;;;;;;7.07;5.03;;;;;;;;;;5113200;28;20505;-67
2021/08/03 05:40:49;;;;;;;6.05;4.75;;;;;;;;;;5113132;28;20027;-68
2021/08/03 05:43:15;;;;;;;8.07;5.55;;;;;;;;;;5113040;28;20524;-68
2021/08/03 05:45:41;;;;;;;11.18;6.30;;;;;;;;;;5112725;28;20046;-68
2021/08/03 05:48:07;;;;;;;7.60;5.07;;;;;;;;;;5113065;28;20020;-68
2021/08/03 05:50:33;;;;;;;8.55;5.20;;;;;;;;;;5113012;28;20486;-67
2021/08/03 05:52:59;;;;;;;8.75;4.82;;;;;;;;;;5112531;28;20031;-67
2021/08/03 05:55:25;;;;;;;10.60;5.35;;;;;;;;;;5112932;28;20030;-68
2021/08/03 05:57:51;;;;;;;9.80;5.15;;;;;;;;;;5112828;28;20136;-68
2021/08/03 06:00:18;;;;;;;7.55;5.05;;;;;;;;;;5112751;28;20045;-68
2021/08/03 06:02:44;;;;;;;9.38;5.15;;;;;;;;;;5106823;28;20036;-67
2021/08/03 06:05:10;;;;;;;9.45;4.95;;;;;;;;;;5101783;28;20531;-68
2021/08/03 06:07:41;;;;;;;8.50;5.40;;;;;;;;;;5110979;28;20023;-67
2021/08/03 06:10:08;;;;;;;10.70;4.95;;;;;;;;;;5112858;28;20024;-68
2021/08/03 06:12:34;;;;;;;9.95;6.43;;;;;;;;;;5112052;28;20027;-68
2021/08/03 06:15:02;;;;;;;8.98;5.85;;;;;;;;;;5112288;28;20031;-67
2021/08/03 06:17:36;;;;;;;12.77;5.97;;;;;;;;;;5111854;28;20038;-67
2021/08/03 06:20:03;;;;;;;9.53;5.30;;;;;;;;;;5110926;28;20047;-68
2021/08/03 06:22:30;;;;;;;8.13;5.38;;;;;;;;;;5112094;28;20028;-68
2021/08/03 06:24:56;;;;;;;8.98;5.40;;;;;;;;;;5112515;28;20046;-68
2021/08/03 06:27:22;;;;;;;7.35;4.72;;;;;;;;;;5112731;28;20378;-68
2021/08/03 06:29:48;;;;;;;11.35;5.53;;;;;;;;;;5112733;28;20016;-67
2021/08/03 06:32:15;;;;;;;7.88;4.65;;;;;;;;;;5112462;28;20019;-67
2021/08/03 06:34:45;;;;;;;8.20;5.50;;;;;;;;;;5112635;28;20401;-67
2021/08/03 06:37:12;;;;;;;7.57;4.82;;;;;;;;;;5112780;28;20020;-67
2021/08/03 06:39:38;;;;;;;9.10;4.97;;;;;;;;;;5112712;28;20031;-68
2021/08/03 06:42:06;;;;;;;6.88;5.07;;;;;;;;;;5108115;28;20059;-67
2021/08/03 06:44:42;;;;;;;8.05;4.80;;;;;;;;;;5100499;28;20425;-67
2021/08/03 06:47:09;;;;;;;11.52;5.45;;;;;;;;;;5092166;28;20073;-68
2021/08/03 06:49:42;;;;;;;7.82;5.65;;;;;;;;;;5092113;28;20044;-67
2021/08/03 06:52:10;;;;;;;9.05;5.85;;;;;;;;;;5105217;28;20012;-68
2021/08/03 06:54:37;;;;;;;8.13;5.07;;;;;;;;;;5111453;28;20023;-68
2021/08/03 06:57:08;;;;;;;7.30;5.53;;;;;;;;;;5111350;28;20055;-68
2021/08/03 06:59:34;;;;;;;7.75;5.22;;;;;;;;;;5116063;28;20088;-69
2021/08/03 07:02:07;;;;;;;8.27;5.55;;;;;;;;;;5115627;28;20047;-68
2021/08/03 07:04:46;;;;;;;8.45;5.35;;;;;;;;;;5113197;28;20044;-69
2021/08/03 07:07:12;;;;;;;10.05;5.68;;;;;;;;;;5105053;28;20063;-68
2021/08/03 07:09:42;;;;;;;10.13;6.05;;;;;;;;;;5103732;28;20474;-67
2021/08/03 07:12:10;;;;;;;11.32;5.13;;;;;;;;;;5104706;28;20073;-67
2021/08/03 07:14:37;;;;;;;10.95;5.45;;;;;;;;;;5114025;28;20027;-68
2021/08/03 07:17:05;;;;;;;8.63;5.35;;;;;;;;;;5109154;28;20027;-68
2021/08/03 07:19:32;;;;;;;8.90;5.10;;;;;;;;;;5102150;28;20767;-67
2021/08/03 07:21:58;;;;;;;7.40;4.95;;;;;;;;;;5105421;28;20099;-68
2021/08/03 07:24:25;;;;;;;8.73;5.38;;;;;;;;;;5106886;27;20027;-68
2021/08/03 07:26:51;;;;;;;8.57;5.72;;;;;;;;;;5094847;28;20061;-67
2021/08/03 07:29:17;;;;;;;8.77;5.25;;;;;;;;;;5094408;28;20522;-68
2021/08/03 07:31:43;;;;;;;7.07;4.60;;;;;;;;;;5106960;28;20036;-69
2021/08/03 07:34:10;;;;;;;7.75;4.85;;;;;;;;;;5111055;28;20032;-68
2021/08/03 07:36:36;;;;;;;7.45;5.00;;;;;;;;;;5111265;28;20034;-67
2021/08/03 07:39:07;;;;;;;6.85;4.10;;;;;;;;;;5104211;28;20027;-69
2021/08/03 07:41:36;;;;;;;7.88;5.53;;;;;;;;;;5099710;28;20023;-68
2021/08/03 07:44:02;;;;;;;6.72;5.00;;;;;;;;;;5095581;28;20117;-69
2021/08/03 07:46:29;;;;;;;8.77;5.60;;;;;;;;;;5093506;28;20024;-69
2021/08/03 07:48:56;;;;;;;7.25;4.47;;;;;;;;;;5105073;28;20139;-69
2021/08/03 07:51:22;;;;;;;8.43;5.03;;;;;;;;;;5102230;28;20036;-68
2021/08/03 07:53:48;;;;;;;6.60;4.47;;;;;;;;;;5089279;28;20125;-68
2021/08/03 07:56:15;;;;;;;7.82;4.80;;;;;;;;;;5109274;28;20028;-70
2021/08/03 07:58:41;;;;;;;12.35;4.90;;;;;;;;;;5101975;28;20050;-69
2021/08/03 08:01:07;;;;;;;7.30;5.03;;;;;;;;;;5098776;28;20036;-69
2021/08/03 08:03:34;;;;;;;7.50;5.40;;;;;;;;;;5105409;28;20790;-70
2021/08/03 08:06:01;;;;;;;7.35;5.28;;;;;;;;;;5109416;28;20031;-68
2021/08/03 08:08:27;;;;;;;8.43;4.82;;;;;;;;;;5096592;28;20116;-67
2021/08/03 08:10:53;;;;;;;8.40;5.25;;;;;;;;;;5105791;28;20591;-69
2021/08/03 08:13:19;;;;;;;8.63;5.28;;;;;;;;;;5100279;28;20039;-70
2021/08/03 08:15:45;;;;;;;6.60;4.63;;;;;;;;;;5109763;28;20486;-71
2021/08/03 08:18:11;;;;;;;7.55;4.50;;;;;;;;;;5103599;28;20031;-69
2021/08/03 08:20:38;;;;;;;7.68;4.85;;;;;;;;;;5106190;28;20042;-70
2021/08/03 08:23:04;;;;;;;7.10;4.70;;;;;;;;;;5088913;28;20115;-68
2021/08/03 08:25:30;;;;;;;8.93;4.60;;;;;;;;;;5089513;28;20107;-69
2021/08/03 08:27:57;;;;;;;9.48;5.15;;;;;;;;;;5096219;28;20541;-68
2021/08/03 08:30:23;;;;;;;7.22;5.03;;;;;;;;;;5110064;28;20036;-68
2021/08/03 08:32:49;;;;;;;8.13;4.60;;;;;;;;;;5107918;28;20371;-67
2021/08/03 08:35:15;;;;;;;6.85;4.65;;;;;;;;;;5109939;28;20110;-66
2021/08/03 08:37:41;;;;;;;5.60;4.20;;;;;;;;;;5109085;28;20028;-67
2021/08/03 08:40:08;;;;;;;6.70;4.18;;;;;;;;;;5101217;28;20110;-67
2021/08/03 08:42:34;;;;;;;6.68;4.57;;;;;;;;;;5094600;28;20036;-69
2021/08/03 08:45:01;;;;;;;6.90;4.55;;;;;;;;;;5098124;28;20543;-69
2021/08/03 08:47:27;;;;;;;5.45;3.90;;;;;;;;;;5098432;28;20024;-68
2021/08/03 08:49:55;;;;;;;5.45;4.00;;;;;;;;;;5094651;28;20489;-69
2021/08/03 08:52:22;;;;;;;7.93;4.70;;;;;;;;;;5092188;28;20036;-69
2021/08/03 08:54:48;;;;;;;6.63;4.15;;;;;;;;;;5090797;28;20083;-68
2021/08/03 08:57:14;;;;;;;7.80;4.55;;;;;;;;;;5103151;28;20036;-68
2021/08/03 08:59:40;;;;;;;6.50;4.55;;;;;;;;;;5109723;28;20039;-70
2021/08/03 09:02:06;;;;;;;4.45;3.72;;;;;;;;;;5106929;28;20058;-68
2021/08/03 09:04:33;;;;;;;5.28;3.78;;;;;;;;;;5102831;28;20059;-67
2021/08/03 09:07:01;;;;;;;8.43;3.97;;;;;;;;;;5098973;28;20048;-67
2021/08/03 09:09:27;;;;;;;6.25;3.90;;;;;;;;;;5096316;28;20039;-66
2021/08/03 09:11:53;;;;;;;6.03;4.63;;;;;;;;;;5097512;28;20019;-65
2021/08/03 09:14:35;;;;;;;6.80;4.32;;;;;;;;;;5108738;28;20600;-68
2021/08/03 09:17:01;;;;;;;6.38;4.30;;;;;;;;;;5105027;28;20028;-66
2021/08/03 09:19:32;;;;;;;4.50;3.60;;;;;;;;;;5096523;28;20035;-70
2021/08/03 09:22:10;;;;;;;6.38;3.75;;;;;;;;;;5106270;28;20089;-70
2021/08/03 09:24:36;;;;;;;5.03;3.65;;;;;;;;;;5099657;28;20066;-68
2021/08/03 09:27:03;;;;;;;4.43;3.58;;;;;;;;;;5089646;28;20028;-68
2021/08/03 09:29:42;;;;;;;5.97;3.47;;;;;;;;;;5101162;28;20037;-68
2021/08/03 09:32:08;;;;;;;5.97;4.15;;;;;;;;;;5099184;28;20024;-67
2021/08/03 09:34:34;;;;;;;4.63;3.63;;;;;;;;;;5104252;28;20040;-69
2021/08/03 09:37:00;;;;;;;4.90;3.50;;;;;;;;;;5103527;28;20035;-69
2021/08/03 09:39:36;;;;;;;5.03;3.22;;;;;;;;;;5105935;28;20039;-69
2021/08/03 09:42:04;;;;;;;5.03;3.35;;;;;;;;;;5094408;28;20755;-68
2021/08/03 09:44:30;;;;;;;6.03;4.07;;;;;;;;;;5092503;28;20036;-69
2021/08/03 09:47:00;;;;;;;5.20;3.53;;;;;;;;;;5103529;28;20355;-69
2021/08/03 09:49:39;;;;;;;6.00;3.38;;;;;;;;;;5103640;28;20031;-67
2021/08/03 09:52:05;;;;;;;3.90;3.08;;;;;;;;;;5100604;28;20026;-68
2021/08/03 09:54:31;;;;;;;4.88;3.42;;;;;;;;;;5095245;28;20081;-68
2021/08/03 09:56:57;;;;;;;4.38;3.30;;;;;;;;;;5097879;28;20074;-67
2021/08/03 09:59:32;;;;;;;4.70;3.05;;;;;;;;;;5107172;28;20043;-67
2021/08/03 10:01:58;;;;;;;;;;;;;;;;;;5107653;28;20058;-67
2021/08/03 10:04:26;;;;;;;8.30;4.18;;;;;;;;;;5088213;28;20297;-66
2021/08/03 10:06:52;;;;;;;4.93;2.92;;;;;;;;;;5106954;28;20132;-66
2021/08/03 10:09:21;;;;;;;4.65;3.20;;;;;;;;;;5101505;28;20394;-68
2021/08/03 10:11:47;;;;;;;4.72;3.20;;;;;;;;;;5098961;28;20115;-66
2021/08/03 10:14:14;;;;;;;4.35;3.05;;;;;;;;;;5102702;28;20043;-66
2021/08/03 10:16:40;;;;;;;4.00;2.80;;;;;;;;;;5104581;28;20027;-66
2021/08/03 10:19:06;;;;;;;3.60;2.40;;;;;;;;;;5104634;28;20115;-68
2021/08/03 10:21:35;;;;;;;3.15;2.65;;;;;;;;;;5099825;28;20036;-69
2021/08/03 10:24:17;;;;;;;3.67;2.78;;;;;;;;;;5103056;28;20707;-68
2021/08/03 10:27:02;;;;;;;3.90;2.90;;;;;;;;;;5095673;28;20040;-67
2021/08/03 10:29:28;;;;;;;5.47;3.00;;;;;;;;;;5104507;28;20028;-69
2021/08/03 10:31:54;;;;;;;5.10;3.00;;;;;;;;;;5101398;28;20031;-67
2021/08/03 10:34:46;;;;;;;5.20;3.35;;;;;;;;;;5105916;28;20031;-68
2021/08/03 10:37:13;;;;;;;3.97;3.13;;;;;;;;;;5097770;28;20036;-66
2021/08/03 10:39:49;;;;;;;3.28;2.58;;;;;;;;;;5105306;28;20815;-69
2021/08/03 10:42:15;;;;;;;5.13;3.58;;;;;;;;;;5100944;28;20429;-68
2021/08/03 10:44:43;;;;;;;7.40;3.70;;;;;;;;;;5105324;28;20077;-68
2021/08/03 10:47:27;;;;;;;5.10;3.10;;;;;;;;;;5106005;28;20116;-67
2021/08/03 10:49:55;;;;;;;5.13;3.38;;;;;;;;;;5101101;28;20027;-69
2021/08/03 10:52:40;;;;;;;6.05;2.88;;;;;;;;;;5106983;28;20417;-67
2021/08/03 10:55:06;;;;;;;3.97;3.08;;;;;;;;;;5110478;28;20031;-69
2021/08/03 10:57:32;;;;;;;5.55;3.40;;;;;;;;;;5098229;28;20115;-67
2021/08/03 10:59:59;;;;;;;3.80;3.10;;;;;;;;;;5103367;28;20019;-66
2021/08/03 11:02:25;;;;;;;5.00;3.20;;;;;;;;;;5108629;28;20129;-66
2021/08/03 11:04:52;;;;;;;4.00;2.78;;;;;;;;;;5099570;28;20119;-67
2021/08/03 11:07:27;;;;;;;3.65;2.80;;;;;;;;;;5099077;28;20102;-67
2021/08/03 11:10:00;;;;;;;5.25;2.95;;;;;;;;;;5110485;28;20020;-67
2021/08/03 11:12:34;;;;;;;5.30;3.10;;;;;;;;;;5100892;28;20035;-68
2021/08/03 11:15:00;;;;;;;4.13;2.90;;;;;;;;;;5098457;28;20036;-67
2021/08/03 11:17:45;;;;;;;5.22;3.50;;;;;;;;;;5101810;28;20481;-68
2021/08/03 11:20:31;;;;;;;3.97;2.83;;;;;;;;;;5100917;28;20027;-67
2021/08/03 11:22:57;;;;;;;4.10;2.90;;;;;;;;;;5107757;28;20036;-67
2021/08/03 11:25:24;;;;;;;4.30;3.15;;;;;;;;;;5098575;28;20036;-67
2021/08/03 11:27:50;;;;;;;3.92;3.05;;;;;;;;;;5108836;28;20046;-68
2021/08/03 11:30:18;;;;;;;3.63;3.22;;;;;;;;;;5110349;28;20023;-67
2021/08/03 11:32:44;;;;;;;7.65;3.10;;;;;;;;;;5097198;28;20619;-67
2021/08/03 11:35:10;;;;;;;4.22;3.17;;;;;;;;;;5100516;28;20101;-67
2021/08/03 11:37:40;;;;;;;4.38;2.95;;;;;;;;;;5101692;28;20031;-66
2021/08/03 11:40:07;;;;;;;4.38;2.90;;;;;;;;;;5102969;28;20085;-65
2021/08/03 11:42:40;;;;;;;3.88;2.80;;;;;;;;;;5099276;28;20059;-67
2021/08/03 11:45:09;;;;;;;4.40;3.20;;;;;;;;;;5107435;28;20127;-66
2021/08/03 11:47:40;;;;;;;4.35;3.00;;;;;;;;;;5104442;28;20031;-66
2021/08/03 11:50:07;;;;;;;4.30;3.15;;;;;;;;;;5106543;28;20469;-67
2021/08/03 11:52:34;;;;;;;5.00;3.20;;;;;;;;;;5110711;28;20028;-67
2021/08/03 11:55:00;;;;;;;4.18;2.92;;;;;;;;;;5110362;28;20131;-67
2021/08/03 11:57:34;;;;;;;3.65;2.70;;;;;;;;;;5109506;28;20088;-67
2021/08/03 12:00:00;;;;;;;4.03;2.75;;;;;;;;;;5100617;28;20027;-66
2021/08/03 12:02:27;;;;;;;6.82;3.78;;;;;;;;;;5105416;28;20532;-67
2021/08/03 12:05:11;;;;;;;7.53;3.80;;;;;;;;;;5103008;28;20095;-67
2021/08/03 12:07:39;;;;;;;3.72;2.85;;;;;;;;;;5090876;28;20391;-67
2021/08/03 12:10:06;;;;;;;5.57;2.80;;;;;;;;;;5100091;28;20127;-68
2021/08/03 12:12:35;;;;;;;4.35;3.50;;;;;;;;;;5097801;28;20038;-68
2021/08/03 12:15:11;;;;;;;4.20;2.92;;;;;;;;;;5096079;28;20035;-69
2021/08/03 12:17:38;;;;;;;3.83;3.00;;;;;;;;;;5104560;28;20028;-68
2021/08/03 12:20:20;;;;;;;3.33;2.70;;;;;;;;;;5108626;28;20027;-69
2021/08/03 12:22:46;;;;;;;5.68;2.80;;;;;;;;;;5095151;28;20319;-70
2021/08/03 12:25:12;;;;;;;3.63;2.58;;;;;;;;;;5093107;28;20032;-68
2021/08/03 12:27:39;;;;;;;3.13;2.40;;;;;;;;;;5089182;28;20111;-66
2021/08/03 12:30:28;;;;;;;3.50;2.55;;;;;;;;;;5101696;28;20038;-69
2021/08/03 12:32:54;;;;;;;3.55;2.60;;;;;;;;;;5094869;28;20031;-67
2021/08/03 12:35:20;;;;;;;4.05;2.47;;;;;;;;;;5094364;28;20043;-67
2021/08/03 12:37:46;;;;;;;3.47;2.25;;;;;;;;;;5091832;28;20047;-67
2021/08/03 12:40:33;;;;;;;3.40;1.98;;;;;;;;;;5102085;28;20027;-66
2021/08/03 12:42:59;;;;;;;2.55;2.05;;;;;;;;;;5097438;28;20035;-68
2021/08/03 12:45:26;;;;;;;3.65;2.25;;;;;;;;;;5102459;28;20028;-66
2021/08/03 12:47:52;;;;;;;3.70;2.50;;;;;;;;;;5103633;28;20027;-65
2021/08/03 12:50:19;;;;;;;4.18;2.60;;;;;;;;;;5099703;28;20482;-67
2021/08/03 12:52:49;;;;;;;4.50;3.28;;;;;;;;;;5095974;28;20028;-66
2021/08/03 12:55:24;;;;;;;4.10;2.83;;;;;;;;;;5095440;28;20098;-70
2021/08/03 12:57:51;;;;;;;6.10;3.25;;;;;;;;;;5102240;28;20024;-68
2021/08/03 13:00:29;;;;;;;4.30;2.88;;;;;;;;;;5098308;28;20035;-65
2021/08/03 13:02:56;;;;;;;4.07;2.85;;;;;;;;;;5093496;28;20039;-66
2021/08/03 13:05:22;;;;;;;3.85;2.90;;;;;;;;;;5090942;28;20581;-66
2021/08/03 13:07:48;;;;;;;6.00;3.15;;;;;;;;;;5100175;28;20058;-68
2021/08/03 13:10:15;;;;;;;4.43;3.15;;;;;;;;;;5098103;28;20039;-68
2021/08/03 13:12:41;;;;;;;5.05;2.80;;;;;;;;;;5093058;28;20051;-67
2021/08/03 13:15:07;;;;;;;4.25;3.05;;;;;;;;;;5095462;28;20038;-68
2021/08/03 13:17:33;;;;;;;3.03;2.70;;;;;;;;;;5095286;28;20038;-68
2021/08/03 13:19:59;;;;;;;4.38;3.10;;;;;;;;;;5087049;28;20075;-67
2021/08/03 13:22:25;;;;;;;5.13;3.30;;;;;;;;;;5094925;28;20560;-67
2021/08/03 13:24:51;;;;;;;3.75;2.83;;;;;;;;;;5090588;28;20638;-66
2021/08/03 13:27:17;;;;;;;4.00;2.90;;;;;;;;;;5093096;28;20027;-66
2021/08/03 13:29:44;;;;;;;6.32;3.10;;;;;;;;;;5102036;28;20150;-67
2021/08/03 13:32:10;;;;;;;5.32;3.10;;;;;;;;;;5101402;28;20091;-67
2021/08/03 13:34:36;;;;;;;6.32;3.05;;;;;;;;;;5105307;28;20034;-66
2021/08/03 13:37:02;;;;;;;4.70;3.00;;;;;;;;;;5095270;28;20062;-67
2021/08/03 13:39:28;;;;;;;4.43;3.00;;;;;;;;;;5103447;28;20040;-67
2021/08/03 13:41:55;;;;;;;4.72;3.40;;;;;;;;;;5103410;28;20032;-66
2021/08/03 13:44:21;;;;;;;6.22;2.92;;;;;;;;;;5093686;28;20038;-66
2021/08/03 13:46:47;;;;;;;4.28;3.08;;;;;;;;;;5105834;28;20057;-67
2021/08/03 13:49:13;;;;;;;4.40;3.25;;;;;;;;;;5094397;28;20125;-65
2021/08/03 13:51:40;;;;;;;5.55;3.17;;;;;;;;;;5093479;28;20028;-67
2021/08/03 13:54:06;;;;;;;3.72;2.72;;;;;;;;;;5098991;28;20129;-68
2021/08/03 13:56:33;;;;;;;4.47;2.75;;;;;;;;;;5088300;28;20032;-67
2021/08/03 13:58:59;;;;;;;4.63;3.35;;;;;;;;;;5104568;28;20521;-66
2021/08/03 14:01:25;;;;;;;5.15;2.78;;;;;;;;;;5108594;28;20081;-67
2021/08/03 14:03:51;;;;;;;4.13;2.90;;;;;;;;;;5104718;28;20026;-68
2021/08/03 14:06:20;;;;;;;4.25;3.63;;;;;;;;;;5104696;28;20573;-67
2021/08/03 14:08:46;;;;;;;4.47;3.05;;;;;;;;;;5112703;28;20089;-69
2021/08/03 14:11:12;;;;;;;4.28;2.80;;;;;;;;;;5100695;28;20490;-69
2021/08/03 14:13:38;;;;;;;5.88;3.20;;;;;;;;;;5110099;28;20558;-67
2021/08/03 14:16:06;;;;;;;4.85;3.13;;;;;;;;;;5100167;28;20560;-68
2021/08/03 14:18:33;;;;;;;3.72;2.90;;;;;;;;;;5107361;27;20111;-68
2021/08/03 14:20:59;;;;;;;5.60;2.80;;;;;;;;;;5108333;28;20027;-68
2021/08/03 14:23:25;;;;;;;3.50;2.47;;;;;;;;;;5102247;28;20585;-67
2021/08/03 14:25:51;;;;;;;4.40;2.85;;;;;;;;;;5102838;28;20114;-67
2021/08/03 14:28:17;;;;;;;3.42;3.10;;;;;;;;;;5103050;28;20081;-68
2021/08/03 14:30:44;;;;;;;3.70;2.83;;;;;;;;;;5102521;28;20046;-68
2021/08/03 14:33:10;;;;;;;3.50;2.55;;;;;;;;;;5113929;28;20024;-68
2021/08/03 14:35:36;;;;;;;3.78;2.72;;;;;;;;;;5111757;28;20490;-68
2021/08/03 14:38:03;;;;;;;3.85;2.88;;;;;;;;;;5109447;28;20039;-69
2021/08/03 14:40:29;;;;;;;3.13;2.45;;;;;;;;;;5107908;28;20035;-69
2021/08/03 14:42:55;;;;;;;8.02;2.78;;;;;;;;;;5112467;28;20027;-69
2021/08/03 14:45:21;;;;;;;3.38;2.50;;;;;;;;;;5100475;28;20032;-69
2021/08/03 14:47:47;;;;;;;4.15;2.55;;;;;;;;;;5108221;28;20663;-68